General Aviation Weather

Text Reports

Enter one or more of the following location identifiers separated by a space:

Zip Code, Four-Character ICAO or Three-Character IATA airport codes.

METAR - Aviation Routine Weather Report
KLCI - Laconia, New Hampshire
Updated at 2:35 PM GMT on September 01, 2015 (10:35 AM EDT):
METAR KLCI 011435Z AUTO 31003KT 10SM CLR 24/14 A3006 RMK AO1
TAF - Terminal Area Forecast
KLCI - Laconia, New Hampshire
Updated at 2:35 PM GMT on September 01, 2015 (10:35 AM EDT):
No TAF is currently available for this location.
Decoded:
No decoded TAF is available.
PIREP - Pilot Weather Report
KLCI - Laconia, New Hampshire
Updated at 2:35 PM GMT on September 01, 2015 (10:35 AM EDT):
No PIREP is currently available for this location.
AIRMET - Airmens Meteorological Information
KLCI - Laconia, New Hampshire
Updated at 2:35 PM GMT on September 01, 2015 (10:35 AM EDT):
No AIRMET is currently available for this location.
SIGMET - Significant Meteorological Information
KLCI - Laconia, New Hampshire
Updated at 2:35 PM GMT on September 01, 2015 (10:35 AM EDT):
No SIGMET is currently available for this location.
NOTAM - Notice to Airmen
KLCI - Laconia, New Hampshire
Updated at 2:35 PM GMT on September 01, 2015 (10:35 AM EDT):
No NOTAM is currently available for this location.
Forecast Area
KLCI - Laconia, New Hampshire
Updated at 2:35 PM GMT on September 01, 2015 (10:35 AM EDT):
No NOTAM is currently available for this location.
Aviation Weather Maps